createdAt,value
2023-01-17T00:02:15.358Z,5.20
2023-01-17T00:05:00.801Z,5.07
2023-01-17T00:07:47.036Z,4.80
2023-01-17T00:10:16.935Z,4.50
2023-01-17T00:12:49.514Z,4.18
2023-01-17T00:15:16.727Z,4.32
2023-01-17T00:17:43.931Z,3.97
2023-01-17T00:20:32.359Z,4.00
2023-01-17T00:23:18.070Z,4.13
2023-01-17T00:26:03.346Z,4.32
2023-01-17T00:28:41.218Z,4.60
2023-01-17T00:31:09.658Z,4.47
2023-01-17T00:33:37.377Z,3.80
2023-01-17T00:36:05.512Z,3.70
2023-01-17T00:38:35.475Z,3.65
2023-01-17T00:41:08.642Z,3.70
2023-01-17T00:43:54.541Z,3.60
2023-01-17T00:46:40.748Z,3.40
2023-01-17T00:49:26.257Z,3.25
2023-01-17T00:52:11.926Z,3.05
2023-01-17T00:54:57.431Z,3.20
2023-01-17T00:57:43.198Z,2.70
2023-01-17T01:00:29.399Z,3.00
2023-01-17T01:03:14.856Z,3.28
2023-01-17T01:06:00.523Z,3.27
2023-01-17T01:08:48.407Z,3.67
2023-01-17T01:11:36.052Z,3.60
2023-01-17T01:14:22.126Z,3.70
2023-01-17T01:17:07.972Z,4.10
2023-01-17T01:19:53.459Z,3.80
2023-01-17T01:22:38.885Z,3.55
2023-01-17T01:25:24.713Z,3.50
2023-01-17T01:28:10.396Z,3.15
2023-01-17T01:30:55.927Z,2.70
2023-01-17T01:33:22.843Z,2.63
2023-01-17T01:35:52.333Z,2.08
2023-01-17T01:38:20.845Z,2.08
2023-01-17T01:40:50.847Z,2.00
2023-01-17T01:43:20.791Z,1.67
2023-01-17T01:45:53.126Z,1.83
2023-01-17T01:48:25.818Z,1.80
2023-01-17T01:50:52.832Z,1.80
2023-01-17T01:53:21.408Z,1.90
2023-01-17T01:55:50.926Z,1.90
2023-01-17T01:58:25.135Z,2.00
2023-01-17T02:00:52.364Z,1.50
2023-01-17T02:03:26.567Z,1.50
2023-01-17T11:43:59.914Z,13.70
2023-01-17T11:46:30.698Z,13.93
2023-01-17T11:48:59.989Z,14.48
2023-01-17T11:51:33.005Z,14.50
2023-01-17T11:54:27.058Z,13.03
2023-01-17T11:57:17.720Z,13.13
2023-01-17T11:59:47.935Z,14.27
2023-01-17T12:02:42.346Z,13.70
2023-01-17T12:05:34.301Z,13.98
2023-01-17T12:10:40.136Z,13.82
2023-01-17T12:13:44.708Z,11.50
2023-01-17T12:16:42.024Z,12.53
2023-01-17T12:19:46.725Z,11.80
2023-01-17T12:22:25.700Z,11.13
2023-01-17T12:25:37.638Z,11.10
2023-01-17T12:28:41.412Z,10.87
2023-01-17T17:09:13.792Z,8.57
2023-01-17T17:11:42.998Z,9.87
2023-01-17T17:14:10.039Z,16.00
2023-01-17T17:16:38.384Z,12.03
2023-01-17T17:19:07.190Z,14.10
2023-01-17T17:21:36.345Z,25.20
2023-01-17T17:24:04.056Z,22.90
2023-01-17T17:26:34.676Z,22.33
2023-01-17T17:29:10.349Z,14.97
2023-01-17T17:31:41.762Z,11.83
2023-01-17T17:34:11.607Z,10.23
2023-01-17T17:36:39.025Z,9.30
2023-01-17T17:39:09.265Z,10.73
2023-01-17T17:44:22.995Z,8.93
2023-01-17T17:46:55.325Z,10.23
2023-01-17T17:49:23.053Z,12.63
2023-01-17T17:51:51.329Z,13.90
2023-01-17T17:54:18.944Z,10.60
2023-01-17T17:56:49.604Z,9.77
2023-01-17T18:02:01.903Z,12.37
2023-01-17T18:04:28.868Z,10.43
2023-01-17T18:06:58.810Z,12.80
2023-01-17T18:09:25.755Z,12.70
2023-01-17T18:12:05.122Z,13.23
2023-01-17T18:14:33.370Z,12.60
2023-01-17T18:17:01.536Z,15.27
2023-01-17T18:22:09.270Z,17.80
2023-01-17T18:24:38.677Z,16.63
2023-01-17T18:27:06.475Z,15.57
2023-01-17T18:29:33.344Z,17.50
2023-01-17T18:32:02.236Z,26.20
2023-01-17T18:34:30.417Z,16.63
2023-01-17T18:36:57.981Z,17.00
2023-01-17T18:39:30.121Z,17.80
2023-01-17T18:41:57.710Z,17.87
2023-01-17T18:44:27.600Z,16.07
2023-01-17T18:46:55.286Z,16.07
2023-01-17T18:49:22.262Z,16.43
2023-01-17T18:51:51.432Z,17.77
2023-01-17T18:54:20.124Z,18.33
2023-01-17T18:56:47.784Z,17.83
2023-01-17T18:59:18.347Z,18.77
2023-01-17T19:01:46.015Z,19.83
2023-01-17T19:04:18.878Z,26.95
2023-01-17T19:06:48.038Z,35.50
2023-01-17T19:09:17.009Z,24.65
2023-01-17T19:11:47.699Z,23.25
2023-01-17T19:16:57.542Z,65.28
2023-01-17T19:19:25.769Z,57.83
2023-01-17T19:21:52.889Z,42.63
2023-01-17T19:24:20.002Z,33.13
2023-01-17T19:26:51.240Z,32.23
2023-01-17T19:29:18.260Z,29.27
2023-01-17T19:34:25.909Z,23.60
2023-01-17T19:36:56.722Z,21.77
2023-01-17T19:39:25.607Z,23.02
2023-01-17T19:41:54.994Z,22.67
2023-01-17T19:44:23.303Z,21.63
2023-01-17T19:46:50.287Z,23.85
2023-01-17T19:49:25.150Z,24.80
2023-01-17T19:51:55.199Z,25.20
2023-01-17T19:54:23.305Z,28.58
2023-01-17T19:56:52.311Z,28.47
2023-01-17T19:59:20.174Z,24.73
2023-01-17T20:01:47.956Z,24.83
2023-01-17T20:04:21.141Z,26.58
2023-01-17T20:06:48.125Z,23.80
2023-01-17T20:09:15.233Z,22.30
2023-01-17T20:11:42.424Z,22.58
2023-01-17T20:14:14.382Z,22.13
2023-01-17T20:19:16.613Z,26.40
2023-01-17T20:21:43.427Z,24.73
2023-01-17T20:24:11.032Z,18.73
2023-01-17T20:26:37.880Z,17.17
2023-01-17T20:29:10.080Z,22.83
2023-01-17T20:31:38.692Z,31.50
2023-01-17T20:34:06.737Z,37.42
2023-01-17T20:36:34.061Z,39.30
2023-01-17T20:39:03.873Z,35.53
2023-01-17T20:41:32.479Z,28.67
2023-01-17T20:44:01.161Z,28.15
2023-01-17T20:46:31.867Z,27.30
2023-01-17T20:49:00.540Z,27.52
2023-01-17T20:51:29.332Z,23.65
2023-01-17T20:53:59.884Z,20.48
2023-01-17T20:56:27.147Z,19.60
2023-01-17T20:58:54.581Z,21.08
2023-01-17T21:01:21.913Z,19.43
2023-01-17T21:03:51.586Z,17.20
2023-01-17T21:06:19.614Z,16.47
